sensor_id;sensor_type;location;lat;lon;timestamp;pressure;altitude;pressure_sealevel;temperature;humidity
60089;BME280;45961;53.574;55.878;2023-02-25T00:00:20;100186.63;;;-16.04;76.50
60089;BME280;45961;53.574;55.878;2023-02-25T00:01:23;100188.53;;;-15.94;76.23
60089;BME280;45961;53.574;55.878;2023-02-25T00:02:25;100188.78;;;-16.07;76.38
60089;BME280;45961;53.574;55.878;2023-02-25T00:03:26;100201.31;;;-15.98;76.35
60089;BME280;45961;53.574;55.878;2023-02-25T00:04:27;100197.44;;;-16.03;76.21
60089;BME280;45961;53.574;55.878;2023-02-25T00:05:29;100188.22;;;-16.04;76.28
60089;BME280;45961;53.574;55.878;2023-02-25T00:06:30;100190.03;;;-16.10;76.38
60089;BME280;45961;53.574;55.878;2023-02-25T00:07:31;100183.47;;;-16.03;76.33
60089;BME280;45961;53.574;55.878;2023-02-25T00:08:32;100178.16;;;-16.06;76.49
60089;BME280;45961;53.574;55.878;2023-02-25T00:09:34;100174.59;;;-16.08;76.24
60089;BME280;45961;53.574;55.878;2023-02-25T00:10:35;100180.25;;;-16.02;76.44
60089;BME280;45961;53.574;55.878;2023-02-25T00:11:36;100189.66;;;-16.06;76.13
60089;BME280;45961;53.574;55.878;2023-02-25T00:12:38;100189.28;;;-16.02;75.96
60089;BME280;45961;53.574;55.878;2023-02-25T00:13:39;100182.72;;;-15.95;76.13
60089;BME280;45961;53.574;55.878;2023-02-25T00:14:41;100189.47;;;-16.08;76.13
60089;BME280;45961;53.574;55.878;2023-02-25T00:15:42;100181.38;;;-16.14;76.18
60089;BME280;45961;53.574;55.878;2023-02-25T00:16:43;100190.91;;;-16.10;76.26
60089;BME280;45961;53.574;55.878;2023-02-25T00:17:44;100188.56;;;-16.01;76.33
60089;BME280;45961;53.574;55.878;2023-02-25T00:18:45;100185.22;;;-16.02;76.06
60089;BME280;45961;53.574;55.878;2023-02-25T00:19:46;100185.19;;;-15.95;76.37
60089;BME280;45961;53.574;55.878;2023-02-25T00:20:47;100180.22;;;-15.87;76.26
60089;BME280;45961;53.574;55.878;2023-02-25T00:21:48;100181.25;;;-15.85;76.20
60089;BME280;45961;53.574;55.878;2023-02-25T00:22:49;100191.16;;;-15.85;76.04
60089;BME280;45961;53.574;55.878;2023-02-25T00:23:53;100190.50;;;-15.91;75.90
60089;BME280;45961;53.574;55.878;2023-02-25T00:24:54;100186.94;;;-15.94;75.79
60089;BME280;45961;53.574;55.878;2023-02-25T00:26:03;100187.84;;;-16.00;75.64
60089;BME280;45961;53.574;55.878;2023-02-25T00:27:06;100186.22;;;-15.93;75.74
60089;BME280;45961;53.574;55.878;2023-02-25T00:28:07;100187.09;;;-15.92;75.75
60089;BME280;45961;53.574;55.878;2023-02-25T00:29:08;100193.38;;;-16.03;75.76
60089;BME280;45961;53.574;55.878;2023-02-25T00:30:10;100194.03;;;-15.97;75.92
60089;BME280;45961;53.574;55.878;2023-02-25T00:31:19;100198.97;;;-15.89;75.88
60089;BME280;45961;53.574;55.878;2023-02-25T00:32:21;100197.94;;;-15.91;75.65
60089;BME280;45961;53.574;55.878;2023-02-25T00:33:22;100202.91;;;-15.99;75.75
60089;BME280;45961;53.574;55.878;2023-02-25T00:34:25;100202.53;;;-15.95;76.08
60089;BME280;45961;53.574;55.878;2023-02-25T00:35:26;100188.94;;;-16.05;76.12
60089;BME280;45961;53.574;55.878;2023-02-25T00:36:27;100201.66;;;-15.95;76.15
60089;BME280;45961;53.574;55.878;2023-02-25T00:37:28;100191.88;;;-15.86;76.08
60089;BME280;45961;53.574;55.878;2023-02-25T00:38:29;100202.69;;;-15.86;76.11
60089;BME280;45961;53.574;55.878;2023-02-25T00:39:30;100199.97;;;-15.80;76.03
60089;BME280;45961;53.574;55.878;2023-02-25T00:40:51;100194.28;;;-15.72;75.83
60089;BME280;45961;53.574;55.878;2023-02-25T00:41:52;100203.50;;;-15.71;75.71
60089;BME280;45961;53.574;55.878;2023-02-25T00:42:53;100200.31;;;-15.70;75.65
60089;BME280;45961;53.574;55.878;2023-02-25T00:43:57;100201.59;;;-15.81;75.58
60089;BME280;45961;53.574;55.878;2023-02-25T00:44:59;100205.66;;;-15.81;75.69
60089;BME280;45961;53.574;55.878;2023-02-25T00:45:59;100200.09;;;-15.72;75.69
60089;BME280;45961;53.574;55.878;2023-02-25T00:47:00;100206.34;;;-15.75;75.77
60089;BME280;45961;53.574;55.878;2023-02-25T00:48:02;100207.25;;;-15.75;75.57
60089;BME280;45961;53.574;55.878;2023-02-25T00:49:03;100202.56;;;-15.64;75.57
60089;BME280;45961;53.574;55.878;2023-02-25T00:50:06;100195.44;;;-15.61;75.61
60089;BME280;45961;53.574;55.878;2023-02-25T00:51:11;100193.09;;;-15.83;75.48
60089;BME280;45961;53.574;55.878;2023-02-25T00:52:14;100201.94;;;-15.78;75.64
60089;BME280;45961;53.574;55.878;2023-02-25T00:53:15;100203.69;;;-15.77;75.77
60089;BME280;45961;53.574;55.878;2023-02-25T00:54:16;100191.13;;;-15.78;75.80
60089;BME280;45961;53.574;55.878;2023-02-25T00:55:17;100192.84;;;-15.70;75.67
60089;BME280;45961;53.574;55.878;2023-02-25T00:56:19;100187.94;;;-15.77;75.62
60089;BME280;45961;53.574;55.878;2023-02-25T00:57:20;100202.81;;;-15.77;75.77
60089;BME280;45961;53.574;55.878;2023-02-25T00:58:20;100203.34;;;-15.80;75.90
60089;BME280;45961;53.574;55.878;2023-02-25T00:59:21;100215.09;;;-15.93;75.88
60089;BME280;45961;53.574;55.878;2023-02-25T01:00:22;100209.97;;;-15.87;75.83
60089;BME280;45961;53.574;55.878;2023-02-25T01:01:31;100195.34;;;-15.70;75.79
60089;BME280;45961;53.574;55.878;2023-02-25T01:02:33;100196.97;;;-15.78;75.96
60089;BME280;45961;53.574;55.878;2023-02-25T01:03:34;100207.75;;;-15.70;75.88
60089;BME280;45961;53.574;55.878;2023-02-25T01:04:35;100204.88;;;-15.66;76.12
60089;BME280;45961;53.574;55.878;2023-02-25T01:05:40;100211.84;;;-15.78;76.15
60089;BME280;45961;53.574;55.878;2023-02-25T01:06:41;100204.72;;;-15.67;76.06
60089;BME280;45961;53.574;55.878;2023-02-25T01:07:44;100180.03;;;-15.96;75.90
60089;BME280;45961;53.574;55.878;2023-02-25T01:08:45;100202.72;;;-15.63;75.96
60089;BME280;45961;53.574;55.878;2023-02-25T01:09:48;100207.47;;;-15.57;75.91
60089;BME280;45961;53.574;55.878;2023-02-25T01:10:49;100206.41;;;-15.59;75.98
60089;BME280;45961;53.574;55.878;2023-02-25T01:11:51;100191.19;;;-15.62;75.85
60089;BME280;45961;53.574;55.878;2023-02-25T01:12:51;100204.25;;;-15.56;75.76
60089;BME280;45961;53.574;55.878;2023-02-25T01:13:53;100213.44;;;-15.71;75.84
60089;BME280;45961;53.574;55.878;2023-02-25T01:14:54;100218.69;;;-15.68;76.02
60089;BME280;45961;53.574;55.878;2023-02-25T01:15:55;100213.19;;;-15.65;76.03
60089;BME280;45961;53.574;55.878;2023-02-25T01:16:56;100219.03;;;-15.65;76.31
60089;BME280;45961;53.574;55.878;2023-02-25T01:18:01;100221.91;;;-15.69;76.12
60089;BME280;45961;53.574;55.878;2023-02-25T01:19:13;100217.13;;;-15.67;76.25
60089;BME280;45961;53.574;55.878;2023-02-25T01:20:15;100223.22;;;-15.57;76.40
60089;BME280;45961;53.574;55.878;2023-02-25T01:21:23;100225.03;;;-15.63;76.21
60089;BME280;45961;53.574;55.878;2023-02-25T01:22:25;100210.03;;;-15.72;76.43
60089;BME280;45961;53.574;55.878;2023-02-25T01:23:27;100225.44;;;-15.67;76.40
60089;BME280;45961;53.574;55.878;2023-02-25T01:24:31;100225.28;;;-15.76;76.42
60089;BME280;45961;53.574;55.878;2023-02-25T01:25:32;100229.69;;;-15.66;76.38
60089;BME280;45961;53.574;55.878;2023-02-25T01:26:37;100212.56;;;-15.79;76.61
60089;BME280;45961;53.574;55.878;2023-02-25T01:27:39;100228.19;;;-15.57;76.13
60089;BME280;45961;53.574;55.878;2023-02-25T01:28:40;100220.59;;;-15.58;76.33
60089;BME280;45961;53.574;55.878;2023-02-25T01:29:41;100227.38;;;-15.64;76.30
60089;BME280;45961;53.574;55.878;2023-02-25T01:30:42;100225.88;;;-15.55;76.35
60089;BME280;45961;53.574;55.878;2023-02-25T01:31:46;100217.88;;;-15.53;76.23
60089;BME280;45961;53.574;55.878;2023-02-25T01:32:47;100221.09;;;-15.54;76.21
60089;BME280;45961;53.574;55.878;2023-02-25T01:33:49;100223.16;;;-15.43;76.33
60089;BME280;45961;53.574;55.878;2023-02-25T01:34:50;100218.19;;;-15.43;76.15
60089;BME280;45961;53.574;55.878;2023-02-25T01:35:51;100223.91;;;-15.51;75.97
60089;BME280;45961;53.574;55.878;2023-02-25T01:36:53;100221.22;;;-15.45;76.25
60089;BME280;45961;53.574;55.878;2023-02-25T01:37:55;100225.16;;;-15.54;75.93
60089;BME280;45961;53.574;55.878;2023-02-25T01:38:57;100219.59;;;-15.45;75.93
60089;BME280;45961;53.574;55.878;2023-02-25T01:39:58;100212.66;;;-15.40;75.80
60089;BME280;45961;53.574;55.878;2023-02-25T01:41:00;100223.72;;;-15.52;75.53
60089;BME280;45961;53.574;55.878;2023-02-25T01:42:03;100214.75;;;-15.59;75.81
60089;BME280;45961;53.574;55.878;2023-02-25T01:43:12;100213.09;;;-15.51;75.95
60089;BME280;45961;53.574;55.878;2023-02-25T01:44:17;100216.09;;;-15.47;75.83
60089;BME280;45961;53.574;55.878;2023-02-25T01:46:20;100210.78;;;-15.50;75.72
60089;BME280;45961;53.574;55.878;2023-02-25T01:47:21;100215.75;;;-15.50;76.02
60089;BME280;45961;53.574;55.878;2023-02-25T01:48:24;100214.31;;;-15.48;75.72
60089;BME280;45961;53.574;55.878;2023-02-25T01:49:28;100210.75;;;-15.43;75.78
60089;BME280;45961;53.574;55.878;2023-02-25T01:50:36;100214.16;;;-15.49;75.61
60089;BME280;45961;53.574;55.878;2023-02-25T01:51:40;100210.78;;;-15.50;75.69
60089;BME280;45961;53.574;55.878;2023-02-25T01:52:42;100216.13;;;-15.54;75.66
60089;BME280;45961;53.574;55.878;2023-02-25T01:53:46;100216.84;;;-15.55;75.46
60089;BME280;45961;53.574;55.878;2023-02-25T01:54:51;100218.59;;;-15.54;75.67
60089;BME280;45961;53.574;55.878;2023-02-25T01:55:54;100211.31;;;-15.52;75.73
60089;BME280;45961;53.574;55.878;2023-02-25T01:56:57;100217.16;;;-15.52;75.59
60089;BME280;45961;53.574;55.878;2023-02-25T01:57:59;100222.28;;;-15.43;75.57
60089;BME280;45961;53.574;55.878;2023-02-25T01:59:01;100218.06;;;-15.51;75.52
60089;BME280;45961;53.574;55.878;2023-02-25T02:00:05;100222.13;;;-15.52;75.62
60089;BME280;45961;53.574;55.878;2023-02-25T02:01:20;100215.63;;;-15.58;75.67
60089;BME280;45961;53.574;55.878;2023-02-25T02:02:23;100216.41;;;-15.44;75.54
60089;BME280;45961;53.574;55.878;2023-02-25T02:03:30;100223.16;;;-15.43;75.54
60089;BME280;45961;53.574;55.878;2023-02-25T02:04:35;100225.13;;;-15.47;75.49
60089;BME280;45961;53.574;55.878;2023-02-25T02:06:14;100217.84;;;-15.46;75.39
60089;BME280;45961;53.574;55.878;2023-02-25T02:07:18;100224.94;;;-15.49;75.53
60089;BME280;45961;53.574;55.878;2023-02-25T02:08:21;100221.75;;;-15.48;75.44
60089;BME280;45961;53.574;55.878;2023-02-25T02:09:26;100219.97;;;-15.49;75.43
60089;BME280;45961;53.574;55.878;2023-02-25T02:10:28;100218.75;;;-15.52;75.04
60089;BME280;45961;53.574;55.878;2023-02-25T02:11:29;100218.00;;;-15.44;74.96
60089;BME280;45961;53.574;55.878;2023-02-25T02:12:48;100217.31;;;-15.43;74.81
60089;BME280;45961;53.574;55.878;2023-02-25T02:13:53;100212.53;;;-15.49;74.76
60089;BME280;45961;53.574;55.878;2023-02-25T02:14:58;100218.94;;;-15.51;74.98
60089;BME280;45961;53.574;55.878;2023-02-25T02:17:59;100204.72;;;-15.45;74.88
60089;BME280;45961;53.574;55.878;2023-02-25T02:21:07;100211.50;;;-15.51;74.84
60089;BME280;45961;53.574;55.878;2023-02-25T02:22:25;100214.31;;;-15.48;74.83
60089;BME280;45961;53.574;55.878;2023-02-25T02:24:19;100211.50;;;-15.51;75.02
60089;BME280;45961;53.574;55.878;2023-02-25T02:25:22;100212.19;;;-15.52;75.16
60089;BME280;45961;53.574;55.878;2023-02-25T02:26:48;100205.44;;;-15.46;75.47
60089;BME280;45961;53.574;55.878;2023-02-25T02:28:22;100203.63;;;-15.39;75.42
60089;BME280;45961;53.574;55.878;2023-02-25T02:29:55;100200.06;;;-15.34;75.47
60089;BME280;45961;53.574;55.878;2023-02-25T02:33:28;100188.19;;;-15.37;75.83
60089;BME280;45961;53.574;55.878;2023-02-25T02:38:29;100192.00;;;-15.25;76.06
60089;BME280;45961;53.574;55.878;2023-02-25T02:40:01;100183.84;;;-15.24;76.18
60089;BME280;45961;53.574;55.878;2023-02-25T02:44:51;100189.88;;;-15.22;76.12
60089;BME280;45961;53.574;55.878;2023-02-25T02:47:30;100184.34;;;-15.19;76.20
60089;BME280;45961;53.574;55.878;2023-02-25T02:48:40;100192.69;;;-15.19;75.95
60089;BME280;45961;53.574;55.878;2023-02-25T02:49:52;100195.09;;;-15.11;75.77
60089;BME280;45961;53.574;55.878;2023-02-25T02:51:00;100218.03;;;-15.21;75.66
60089;BME280;45961;53.574;55.878;2023-02-25T02:52:09;100201.41;;;-15.22;75.58
60089;BME280;45961;53.574;55.878;2023-02-25T02:53:26;100197.47;;;-15.20;75.47
60089;BME280;45961;53.574;55.878;2023-02-25T02:54:32;100208.47;;;-15.18;75.52
60089;BME280;45961;53.574;55.878;2023-02-25T02:55:40;100191.41;;;-15.15;75.45
60089;BME280;45961;53.574;55.878;2023-02-25T02:56:46;100197.75;;;-15.10;75.67
60089;BME280;45961;53.574;55.878;2023-02-25T02:57:58;100200.19;;;-15.03;75.62
60089;BME280;45961;53.574;55.878;2023-02-25T02:59:13;100191.69;;;-15.05;75.50
60089;BME280;45961;53.574;55.878;2023-02-25T03:00:20;100199.13;;;-15.05;75.45
60089;BME280;45961;53.574;55.878;2023-02-25T03:01:31;100202.69;;;-15.03;75.48
60089;BME280;45961;53.574;55.878;2023-02-25T03:02:34;100201.75;;;-15.03;75.45
60089;BME280;45961;53.574;55.878;2023-02-25T03:03:44;100199.22;;;-14.96;75.38
60089;BME280;45961;53.574;55.878;2023-02-25T03:04:48;100209.41;;;-15.02;75.42
60089;BME280;45961;53.574;55.878;2023-02-25T03:05:52;100210.66;;;-15.05;75.42
60089;BME280;45961;53.574;55.878;2023-02-25T03:07:02;100205.16;;;-15.03;75.29
60089;BME280;45961;53.574;55.878;2023-02-25T03:08:16;100204.19;;;-14.96;75.62
60089;BME280;45961;53.574;55.878;2023-02-25T03:09:26;100208.56;;;-14.86;75.57
60089;BME280;45961;53.574;55.878;2023-02-25T03:10:31;100204.53;;;-14.93;75.55
60089;BME280;45961;53.574;55.878;2023-02-25T03:11:32;100201.91;;;-14.95;75.64
60089;BME280;45961;53.574;55.878;2023-02-25T03:12:33;100196.59;;;-14.98;75.56
60089;BME280;45961;53.574;55.878;2023-02-25T03:13:35;100201.94;;;-15.02;75.63
60089;BME280;45961;53.574;55.878;2023-02-25T03:14:37;100195.47;;;-14.93;75.50
60089;BME280;45961;53.574;55.878;2023-02-25T03:15:39;100200.63;;;-14.91;75.63
60089;BME280;45961;53.574;55.878;2023-02-25T03:16:50;100196.78;;;-14.80;75.68
60089;BME280;45961;53.574;55.878;2023-02-25T03:17:59;100200.63;;;-14.91;75.80
60089;BME280;45961;53.574;55.878;2023-02-25T03:19:20;100204.00;;;-14.90;75.71
60089;BME280;45961;53.574;55.878;2023-02-25T03:20:28;100206.09;;;-14.86;75.97
60089;BME280;45961;53.574;55.878;2023-02-25T03:21:38;100195.47;;;-14.93;75.71
60089;BME280;45961;53.574;55.878;2023-02-25T03:22:45;100205.59;;;-14.91;75.81
60089;BME280;45961;53.574;55.878;2023-02-25T03:23:47;100220.66;;;-14.89;75.71
60089;BME280;45961;53.574;55.878;2023-02-25T03:25:00;100218.66;;;-14.85;75.82
60089;BME280;45961;53.574;55.878;2023-02-25T03:26:17;100220.13;;;-14.87;75.65
60089;BME280;45961;53.574;55.878;2023-02-25T03:27:35;100216.72;;;-14.87;75.73
60089;BME280;45961;53.574;55.878;2023-02-25T03:28:39;100210.72;;;-14.89;75.77
60089;BME280;45961;53.574;55.878;2023-02-25T03:29:43;100208.81;;;-14.76;75.78
60089;BME280;45961;53.574;55.878;2023-02-25T03:30:49;100218.50;;;-14.86;75.64
60089;BME280;45961;53.574;55.878;2023-02-25T03:31:59;100200.09;;;-14.96;75.72
60089;BME280;45961;53.574;55.878;2023-02-25T03:34:40;100213.25;;;-14.74;75.63
60089;BME280;45961;53.574;55.878;2023-02-25T03:35:45;100213.34;;;-14.65;75.78
60089;BME280;45961;53.574;55.878;2023-02-25T03:36:57;100212.06;;;-14.61;75.80
60089;BME280;45961;53.574;55.878;2023-02-25T03:38:07;100204.28;;;-14.64;75.85
60089;BME280;45961;53.574;55.878;2023-02-25T03:39:24;100200.78;;;-14.66;75.92
60089;BME280;45961;53.574;55.878;2023-02-25T03:40:27;100204.28;;;-14.64;75.96
60089;BME280;45961;53.574;55.878;2023-02-25T03:41:33;100178.13;;;-14.77;76.12
60089;BME280;45961;53.574;55.878;2023-02-25T03:42:38;100186.25;;;-14.71;76.11
60089;BME280;45961;53.574;55.878;2023-02-25T03:43:46;100218.41;;;-14.56;76.08
60089;BME280;45961;53.574;55.878;2023-02-25T03:44:51;100182.69;;;-14.88;75.96
60089;BME280;45961;53.574;55.878;2023-02-25T03:45:55;100217.13;;;-14.53;76.13
60089;BME280;45961;53.574;55.878;2023-02-25T03:46:57;100230.28;;;-14.54;75.78
60089;BME280;45961;53.574;55.878;2023-02-25T03:48:00;100221.22;;;-14.53;75.86
60089;BME280;45961;53.574;55.878;2023-02-25T03:49:04;100219.84;;;-14.58;75.95
60089;BME280;45961;53.574;55.878;2023-02-25T03:50:14;100223.56;;;-14.55;75.75
60089;BME280;45961;53.574;55.878;2023-02-25T03:51:27;100215.53;;;-14.52;75.85
60089;BME280;45961;53.574;55.878;2023-02-25T03:52:29;100220.50;;;-14.52;75.62
60089;BME280;45961;53.574;55.878;2023-02-25T03:53:34;100214.31;;;-14.56;75.73
60089;BME280;45961;53.574;55.878;2023-02-25T03:54:52;100216.31;;;-14.60;75.81
60089;BME280;45961;53.574;55.878;2023-02-25T03:55:55;100218.88;;;-14.52;76.11
60089;BME280;45961;53.574;55.878;2023-02-25T03:56:56;100226.41;;;-14.43;75.96
60089;BME280;45961;53.574;55.878;2023-02-25T03:57:57;100214.56;;;-14.46;75.82
60089;BME280;45961;53.574;55.878;2023-02-25T03:58:58;100224.50;;;-14.46;75.92
60089;BME280;45961;53.574;55.878;2023-02-25T04:00:00;100202.28;;;-14.60;75.86
60089;BME280;45961;53.574;55.878;2023-02-25T04:01:02;100227.47;;;-14.41;75.99
60089;BME280;45961;53.574;55.878;2023-02-25T04:02:06;100229.63;;;-14.28;76.11
60089;BME280;45961;53.574;55.878;2023-02-25T04:03:07;100222.38;;;-14.27;75.92
60089;BME280;45961;53.574;55.878;2023-02-25T04:04:08;100225.72;;;-14.26;75.99
60089;BME280;45961;53.574;55.878;2023-02-25T04:05:09;100234.66;;;-14.35;75.79
60089;BME280;45961;53.574;55.878;2023-02-25T04:06:11;100228.44;;;-14.32;75.84
60089;BME280;45961;53.574;55.878;2023-02-25T04:07:12;100230.69;;;-14.26;75.78
60089;BME280;45961;53.574;55.878;2023-02-25T04:08:14;100217.84;;;-14.38;75.78
60089;BME280;45961;53.574;55.878;2023-02-25T04:09:19;100216.81;;;-14.24;75.61
60089;BME280;45961;53.574;55.878;2023-02-25T04:10:20;100234.06;;;-14.26;75.39
60089;BME280;45961;53.574;55.878;2023-02-25T04:11:21;100227.16;;;-14.28;75.23
60089;BME280;45961;53.574;55.878;2023-02-25T04:12:23;100223.72;;;-14.22;75.40
60089;BME280;45961;53.574;55.878;2023-02-25T04:13:24;100234.00;;;-14.19;75.12
60089;BME280;45961;53.574;55.878;2023-02-25T04:14:25;100231.91;;;-14.23;75.60
60089;BME280;45961;53.574;55.878;2023-02-25T04:15:26;100225.63;;;-14.03;75.68
60089;BME280;45961;53.574;55.878;2023-02-25T04:16:27;100225.22;;;-13.99;75.51
60089;BME280;45961;53.574;55.878;2023-02-25T04:17:30;100225.97;;;-14.00;75.64
60089;BME280;45961;53.574;55.878;2023-02-25T04:18:31;100229.97;;;-14.09;75.29
60089;BME280;45961;53.574;55.878;2023-02-25T04:19:32;100221.97;;;-14.23;75.55
60089;BME280;45961;53.574;55.878;2023-02-25T04:20:33;100232.38;;;-14.18;75.79
60089;BME280;45961;53.574;55.878;2023-02-25T04:21:36;100219.28;;;-14.24;75.50
60089;BME280;45961;53.574;55.878;2023-02-25T04:22:39;100238.06;;;-14.19;75.73
60089;BME280;45961;53.574;55.878;2023-02-25T04:23:40;100226.53;;;-14.03;75.86
60089;BME280;45961;53.574;55.878;2023-02-25T04:24:40;100228.84;;;-14.04;75.65
60089;BME280;45961;53.574;55.878;2023-02-25T04:25:42;100232.63;;;-14.08;75.71
60089;BME280;45961;53.574;55.878;2023-02-25T04:26:43;100233.91;;;-13.96;75.48
60089;BME280;45961;53.574;55.878;2023-02-25T04:27:44;100237.84;;;-13.98;75.01
60089;BME280;45961;53.574;55.878;2023-02-25T04:28:45;100234.56;;;-13.89;75.11
60089;BME280;45961;53.574;55.878;2023-02-25T04:29:46;100225.22;;;-13.83;74.68
60089;BME280;45961;53.574;55.878;2023-02-25T04:30:47;100224.75;;;-14.04;74.52
60089;BME280;45961;53.574;55.878;2023-02-25T04:31:48;100233.69;;;-14.06;74.59
60089;BME280;45961;53.574;55.878;2023-02-25T04:32:49;100225.63;;;-14.03;74.29
60089;BME280;45961;53.574;55.878;2023-02-25T04:33:50;100234.06;;;-14.10;74.35
60089;BME280;45961;53.574;55.878;2023-02-25T04:34:51;100253.16;;;-14.02;74.30
60089;BME280;45961;53.574;55.878;2023-02-25T04:35:52;100233.69;;;-14.06;74.33
60089;BME280;45961;53.574;55.878;2023-02-25T04:36:53;100232.28;;;-14.11;74.17
60089;BME280;45961;53.574;55.878;2023-02-25T04:37:54;100235.09;;;-13.92;74.37
60089;BME280;45961;53.574;55.878;2023-02-25T04:38:56;100224.41;;;-13.91;74.25
60089;BME280;45961;53.574;55.878;2023-02-25T04:39:57;100227.31;;;-13.95;74.34
60089;BME280;45961;53.574;55.878;2023-02-25T04:40:58;100232.41;;;-14.02;74.35
60089;BME280;45961;53.574;55.878;2023-02-25T04:41:59;100225.81;;;-14.02;74.35
60089;BME280;45961;53.574;55.878;2023-02-25T04:43:00;100227.91;;;-13.98;74.42
60089;BME280;45961;53.574;55.878;2023-02-25T04:44:02;100221.72;;;-13.85;74.34
60089;BME280;45961;53.574;55.878;2023-02-25T04:45:05;100222.19;;;-13.97;74.11
60089;BME280;45961;53.574;55.878;2023-02-25T04:46:06;100220.66;;;-13.87;74.02
60089;BME280;45961;53.574;55.878;2023-02-25T04:47:07;100230.13;;;-13.76;73.94
60089;BME280;45961;53.574;55.878;2023-02-25T04:48:08;100234.22;;;-13.93;74.08
60089;BME280;45961;53.574;55.878;2023-02-25T04:49:09;100224.81;;;-13.79;73.74
60089;BME280;45961;53.574;55.878;2023-02-25T04:50:11;100234.06;;;-13.78;73.63
60089;BME280;45961;53.574;55.878;2023-02-25T04:51:12;100228.28;;;-13.70;73.83
60089;BME280;45961;53.574;55.878;2023-02-25T04:52:13;100222.72;;;-13.68;73.68
60089;BME280;45961;53.574;55.878;2023-02-25T04:53:14;100227.78;;;-13.75;73.46
60089;BME280;45961;53.574;55.878;2023-02-25T04:54:19;100221.50;;;-13.71;73.51
60089;BME280;45961;53.574;55.878;2023-02-25T04:55:23;100223.91;;;-13.64;73.47
60089;BME280;45961;53.574;55.878;2023-02-25T04:56:24;100223.69;;;-13.58;73.64
60089;BME280;45961;53.574;55.878;2023-02-25T04:57:25;100235.75;;;-13.70;73.18
60089;BME280;45961;53.574;55.878;2023-02-25T04:58:26;100224.38;;;-13.59;73.28
60089;BME280;45961;53.574;55.878;2023-02-25T04:59:27;100233.00;;;-13.64;73.34
60089;BME280;45961;53.574;55.878;2023-02-25T05:00:28;100234.19;;;-13.61;73.29
60089;BME280;45961;53.574;55.878;2023-02-25T05:01:29;100235.94;;;-13.60;73.25
60089;BME280;45961;53.574;55.878;2023-02-25T05:02:33;100235.06;;;-13.60;73.40
60089;BME280;45961;53.574;55.878;2023-02-25T05:03:38;100216.88;;;-13.68;73.38
60089;BME280;45961;53.574;55.878;2023-02-25T05:04:39;100235.47;;;-13.64;73.48
60089;BME280;45961;53.574;55.878;2023-02-25T05:05:40;100221.25;;;-13.50;73.38
60089;BME280;45961;53.574;55.878;2023-02-25T05:06:41;100221.22;;;-13.34;73.33
60089;BME280;45961;53.574;55.878;2023-02-25T05:07:42;100221.56;;;-13.22;73.31
60089;BME280;45961;53.574;55.878;2023-02-25T05:08:43;100229.56;;;-13.33;73.19
60089;BME280;45961;53.574;55.878;2023-02-25T05:09:44;100215.78;;;-13.05;73.01
60089;BME280;45961;53.574;55.878;2023-02-25T05:10:45;100228.69;;;-13.01;73.04
60089;BME280;45961;53.574;55.878;2023-02-25T05:11:46;100223.84;;;-12.99;73.09
60089;BME280;45961;53.574;55.878;2023-02-25T05:12:47;100215.88;;;-13.12;72.98
60089;BME280;45961;53.574;55.878;2023-02-25T05:13:48;100227.59;;;-12.87;72.87
60089;BME280;45961;53.574;55.878;2023-02-25T05:14:48;100229.00;;;-12.98;72.76
60089;BME280;45961;53.574;55.878;2023-02-25T05:15:49;100241.94;;;-12.93;72.84
60089;BME280;45961;53.574;55.878;2023-02-25T05:16:51;100238.84;;;-12.90;72.76
60089;BME280;45961;53.574;55.878;2023-02-25T05:17:51;100231.38;;;-12.66;72.65
60089;BME280;45961;53.574;55.878;2023-02-25T05:18:53;100226.50;;;-12.64;72.54
60089;BME280;45961;53.574;55.878;2023-02-25T05:19:54;100235.00;;;-12.62;72.60
60089;BME280;45961;53.574;55.878;2023-02-25T05:20:55;100237.38;;;-12.64;72.38
60089;BME280;45961;53.574;55.878;2023-02-25T05:21:56;100225.94;;;-12.62;72.32
60089;BME280;45961;53.574;55.878;2023-02-25T05:22:57;100236.03;;;-12.69;72.31
60089;BME280;45961;53.574;55.878;2023-02-25T05:23:58;100246.38;;;-12.82;72.13
60089;BME280;45961;53.574;55.878;2023-02-25T05:24:59;100247.00;;;-12.76;72.39
60089;BME280;45961;53.574;55.878;2023-02-25T05:26:00;100233.59;;;-12.52;72.62
60089;BME280;45961;53.574;55.878;2023-02-25T05:27:01;100241.81;;;-12.53;72.36
60089;BME280;45961;53.574;55.878;2023-02-25T05:28:09;100231.25;;;-12.50;72.29
60089;BME280;45961;53.574;55.878;2023-02-25T05:29:11;100238.00;;;-12.49;72.15
60089;BME280;45961;53.574;55.878;2023-02-25T05:30:12;100235.69;;;-12.39;72.12
60089;BME280;45961;53.574;55.878;2023-02-25T05:31:14;100243.97;;;-12.64;71.93
60089;BME280;45961;53.574;55.878;2023-02-25T05:32:15;100242.38;;;-12.55;71.95
60089;BME280;45961;53.574;55.878;2023-02-25T05:33:15;100245.03;;;-12.54;72.16
60089;BME280;45961;53.574;55.878;2023-02-25T05:34:17;100242.69;;;-12.52;72.09
60089;BME280;45961;53.574;55.878;2023-02-25T05:35:18;100241.97;;;-12.43;72.01
60089;BME280;45961;53.574;55.878;2023-02-25T05:36:19;100233.06;;;-12.40;72.03
60089;BME280;45961;53.574;55.878;2023-02-25T05:37:21;100219.72;;;-12.74;71.82
60089;BME280;45961;53.574;55.878;2023-02-25T05:38:21;100258.34;;;-12.62;71.98
60089;BME280;45961;53.574;55.878;2023-02-25T05:39:22;100246.19;;;-12.50;72.22
60089;BME280;45961;53.574;55.878;2023-02-25T05:40:24;100247.22;;;-12.57;72.31
60089;BME280;45961;53.574;55.878;2023-02-25T05:41:25;100246.47;;;-12.56;72.28
60089;BME280;45961;53.574;55.878;2023-02-25T05:42:27;100246.25;;;-12.41;72.34
60089;BME280;45961;53.574;55.878;2023-02-25T05:43:28;100238.25;;;-12.13;72.26
60089;BME280;45961;53.574;55.878;2023-02-25T05:44:29;100239.00;;;-12.05;72.03